createdAt,value
2018-02-06T00:01:03.268Z,13.23
2018-02-06T00:02:07.381Z,15.43
2018-02-06T00:03:11.730Z,13.05
2018-02-06T00:04:15.976Z,12.18
2018-02-06T00:05:20.563Z,12.60
2018-02-06T00:06:25.627Z,13.70
2018-02-06T00:07:29.801Z,13.02
2018-02-06T00:08:34.715Z,12.93
2018-02-06T00:09:39.614Z,12.82
2018-02-06T00:10:43.801Z,13.18
2018-02-06T00:11:48.182Z,13.50
2018-02-06T00:12:52.392Z,13.20
2018-02-06T00:13:56.515Z,12.68
2018-02-06T00:15:01.030Z,12.75
2018-02-06T00:16:05.442Z,11.97
2018-02-06T00:17:09.600Z,11.32
2018-02-06T00:18:14.033Z,13.20
2018-02-06T00:19:18.097Z,13.35
2018-02-06T00:20:22.916Z,13.93
2018-02-06T00:21:27.633Z,12.60
2018-02-06T00:22:41.329Z,12.50
2018-02-06T00:23:45.372Z,13.65
2018-02-06T00:24:50.321Z,12.63
2018-02-06T00:25:54.337Z,13.07
2018-02-06T00:26:58.351Z,12.95
2018-02-06T00:28:02.342Z,12.73
2018-02-06T00:29:06.375Z,12.35
2018-02-06T00:30:11.548Z,12.40
2018-02-06T00:31:15.461Z,12.73
2018-02-06T00:32:19.439Z,13.38
2018-02-06T00:33:23.616Z,12.90
2018-02-06T00:34:27.973Z,12.85
2018-02-06T00:35:32.639Z,13.38
2018-02-06T00:36:37.866Z,12.23
2018-02-06T00:37:42.856Z,12.95
2018-02-06T00:38:47.798Z,12.80
2018-02-06T00:39:52.316Z,13.32
2018-02-06T00:40:57.188Z,13.77
2018-02-06T00:42:02.248Z,12.50
2018-02-06T00:43:07.186Z,12.50
2018-02-06T00:44:12.735Z,12.57
2018-02-06T00:45:16.913Z,12.18
2018-02-06T00:46:21.434Z,13.18
2018-02-06T00:47:25.564Z,11.88
2018-02-06T00:48:30.093Z,13.20
2018-02-06T00:49:34.460Z,13.32
2018-02-06T00:50:39.386Z,13.25
2018-02-06T00:51:44.327Z,13.20
2018-02-06T00:52:48.352Z,12.10
2018-02-06T00:53:52.962Z,12.85
2018-02-06T00:54:57.226Z,13.50
2018-02-06T00:56:02.023Z,13.70
2018-02-06T00:57:06.049Z,14.70
2018-02-06T00:58:10.136Z,16.92
2018-02-06T00:59:15.124Z,13.40
2018-02-06T01:00:19.843Z,12.45
2018-02-06T01:01:23.984Z,13.65
2018-02-06T01:02:29.018Z,13.70
2018-02-06T01:03:33.431Z,12.37
2018-02-06T01:04:38.377Z,13.38
2018-02-06T01:05:43.036Z,13.25
2018-02-06T01:06:47.119Z,12.57
2018-02-06T01:07:51.681Z,13.00
2018-02-06T01:08:56.597Z,12.50
2018-02-06T01:10:01.526Z,13.38
2018-02-06T01:11:06.443Z,13.40
2018-02-06T01:12:11.374Z,13.00
2018-02-06T01:13:16.625Z,14.18
2018-02-06T01:14:20.636Z,13.82
2018-02-06T01:15:24.598Z,12.68
2018-02-06T01:16:29.306Z,12.70
2018-02-06T01:17:33.460Z,13.93
2018-02-06T01:18:37.566Z,13.50
2018-02-06T01:19:42.273Z,13.02
2018-02-06T01:20:46.661Z,12.80
2018-02-06T01:21:51.594Z,13.60
2018-02-06T01:22:55.714Z,15.52
2018-02-06T01:23:59.809Z,12.63
2018-02-06T01:25:03.884Z,12.68
2018-02-06T01:26:07.970Z,13.13
2018-02-06T01:27:12.749Z,12.50
2018-02-06T01:28:16.844Z,14.07
2018-02-06T01:29:20.918Z,14.23
2018-02-06T01:30:24.930Z,12.65
2018-02-06T01:31:29.148Z,12.88
2018-02-06T01:32:33.454Z,13.32
2018-02-06T01:33:37.481Z,13.17
2018-02-06T01:34:41.748Z,13.67
2018-02-06T01:35:46.176Z,13.70
2018-02-06T01:36:50.096Z,13.48
2018-02-06T01:37:54.645Z,13.40
2018-02-06T01:38:59.302Z,13.80
2018-02-06T01:40:03.602Z,13.70
2018-02-06T01:41:07.774Z,12.85
2018-02-06T01:42:12.093Z,13.65
2018-02-06T01:43:16.252Z,13.80
2018-02-06T01:44:20.349Z,13.77
2018-02-06T01:45:25.069Z,13.00
2018-02-06T01:46:29.148Z,13.70
2018-02-06T01:47:33.312Z,13.18
2018-02-06T01:48:37.505Z,13.70
2018-02-06T01:49:49.648Z,13.73
2018-02-06T01:50:53.986Z,13.60
2018-02-06T01:51:58.829Z,13.95
2018-02-06T01:53:02.960Z,14.87
2018-02-06T01:54:07.478Z,13.35
2018-02-06T01:55:11.920Z,13.93
2018-02-06T01:56:15.984Z,13.40
2018-02-06T01:57:19.944Z,13.02
2018-02-06T01:58:24.652Z,13.50
2018-02-06T01:59:29.423Z,12.75
2018-02-06T02:00:33.455Z,14.10
2018-02-06T02:01:37.491Z,13.40
2018-02-06T02:02:41.576Z,13.90
2018-02-06T02:03:46.353Z,12.60
2018-02-06T02:04:50.299Z,13.30
2018-02-06T02:05:55.221Z,13.40
2018-02-06T02:07:00.257Z,13.30
2018-02-06T02:08:04.990Z,13.90
2018-02-06T02:09:09.178Z,13.18
2018-02-06T02:10:13.355Z,13.68
2018-02-06T02:11:17.505Z,14.15
2018-02-06T02:12:22.253Z,15.00
2018-02-06T02:13:26.858Z,14.75
2018-02-06T02:14:31.065Z,14.00
2018-02-06T02:15:35.268Z,14.55
2018-02-06T02:16:39.424Z,13.60
2018-02-06T02:17:43.868Z,14.18
2018-02-06T02:18:48.000Z,13.18
2018-02-06T02:19:52.034Z,14.13
2018-02-06T02:20:56.821Z,12.88
2018-02-06T02:22:00.817Z,12.93
2018-02-06T02:23:04.784Z,13.57
2018-02-06T02:24:08.765Z,14.05
2018-02-06T02:25:12.700Z,14.40
2018-02-06T02:26:17.158Z,14.13
2018-02-06T02:27:21.893Z,13.85
2018-02-06T02:28:25.851Z,12.60
2018-02-06T02:29:29.796Z,13.70
2018-02-06T02:30:33.780Z,13.18
2018-02-06T02:31:37.995Z,13.20
2018-02-06T02:32:42.025Z,14.13
2018-02-06T02:33:46.100Z,13.20
2018-02-06T02:34:50.358Z,13.03
2018-02-06T02:35:54.369Z,14.23
2018-02-06T02:36:59.337Z,14.20
2018-02-06T02:38:03.259Z,13.60
2018-02-06T02:39:07.249Z,13.18
2018-02-06T02:40:11.240Z,13.60
2018-02-06T02:41:15.250Z,13.93
2018-02-06T04:38:37.747Z,12.37
2018-02-06T04:39:41.868Z,12.40
2018-02-06T04:40:46.034Z,12.93
2018-02-06T04:41:51.158Z,12.48
2018-02-06T04:42:56.049Z,12.02
2018-02-06T04:44:00.212Z,13.10
2018-02-06T04:45:05.107Z,11.90
2018-02-06T04:46:09.793Z,13.02
2018-02-06T04:47:13.833Z,13.07
2018-02-06T04:48:17.975Z,13.00
2018-02-06T04:49:22.009Z,12.30
2018-02-06T04:50:26.997Z,12.98
2018-02-06T04:51:31.506Z,12.90
2018-02-06T04:52:35.708Z,13.10
2018-02-06T04:53:40.155Z,12.73
2018-02-06T04:54:44.254Z,13.10
2018-02-06T04:55:48.159Z,13.38
2018-02-06T04:56:53.145Z,13.02
2018-02-06T04:57:57.399Z,12.85
2018-02-06T04:59:02.055Z,12.90
2018-02-06T05:00:06.037Z,12.93
2018-02-06T05:01:09.964Z,13.00
2018-02-06T05:02:14.251Z,13.52
2018-02-06T05:03:18.363Z,13.00
2018-02-06T05:04:22.475Z,13.07
2018-02-06T05:05:26.609Z,13.27
2018-02-06T05:06:30.730Z,13.18
2018-02-06T05:07:34.885Z,12.70
2018-02-06T05:08:39.073Z,13.27
2018-02-06T05:09:46.611Z,13.90
2018-02-06T05:10:50.981Z,13.10
2018-02-06T05:11:57.184Z,13.30
2018-02-06T05:13:02.169Z,13.70
2018-02-06T05:14:06.390Z,14.20
2018-02-06T05:15:10.552Z,13.68
2018-02-06T05:16:14.646Z,13.20
2018-02-06T05:17:18.813Z,12.63
2018-02-06T05:18:23.086Z,14.50
2018-02-06T05:19:27.210Z,13.40
2018-02-06T05:20:31.433Z,13.40
2018-02-06T05:21:36.377Z,13.60
2018-02-06T05:22:40.492Z,13.20
2018-02-06T05:23:44.599Z,13.20
2018-02-06T05:24:48.731Z,13.20
2018-02-06T05:25:52.825Z,13.70
2018-02-06T05:26:56.992Z,13.55
2018-02-06T05:28:01.119Z,13.60
2018-02-06T05:29:05.373Z,12.95
2018-02-06T05:30:10.346Z,12.85
2018-02-06T05:31:14.441Z,13.30
2018-02-06T05:32:18.550Z,13.32
2018-02-06T05:33:22.689Z,13.40
2018-02-06T05:34:26.807Z,14.23
2018-02-06T05:35:31.244Z,13.15
2018-02-06T05:36:35.412Z,13.60
2018-02-06T05:37:39.540Z,13.43
2018-02-06T05:38:44.524Z,13.40
2018-02-06T05:39:48.543Z,12.52
2018-02-06T05:40:52.493Z,13.80
2018-02-06T05:41:57.284Z,13.62
2018-02-06T05:43:01.973Z,13.50
2018-02-06T05:44:06.229Z,13.25
2018-02-06T05:45:10.324Z,12.65
2018-02-06T05:46:14.265Z,13.50
2018-02-06T05:47:18.261Z,13.43
2018-02-06T05:48:22.264Z,13.80
2018-02-06T05:49:26.479Z,13.07
2018-02-06T05:50:30.474Z,13.90
2018-02-06T05:51:36.269Z,12.73
2018-02-06T05:52:40.284Z,13.70
2018-02-06T05:53:44.325Z,13.10
2018-02-06T05:54:48.628Z,13.95
2018-02-06T05:55:52.717Z,14.25
2018-02-06T05:56:56.736Z,14.18
2018-02-06T05:58:01.633Z,14.50
2018-02-06T05:59:05.629Z,14.90
2018-02-06T06:00:10.053Z,16.35
2018-02-06T06:01:15.429Z,16.15
2018-02-06T06:02:19.595Z,16.25
2018-02-06T06:03:48.994Z,14.63
2018-02-06T06:04:53.265Z,16.30
2018-02-06T06:05:57.477Z,15.40
2018-02-06T06:07:02.671Z,14.77
2018-02-06T06:08:06.897Z,14.77
2018-02-06T06:09:11.078Z,15.55
2018-02-06T06:10:15.832Z,15.23
2018-02-06T06:11:19.811Z,15.40
2018-02-06T06:12:23.819Z,15.20
2018-02-06T06:13:27.865Z,15.05
2018-02-06T06:14:32.348Z,15.15
2018-02-06T06:15:36.350Z,14.40
2018-02-06T06:16:40.585Z,14.23
2018-02-06T06:17:44.698Z,14.98
2018-02-06T06:18:49.530Z,14.30
2018-02-06T06:19:53.610Z,14.45
2018-02-06T06:20:57.820Z,14.87
2018-02-06T06:22:02.524Z,14.50
2018-02-06T06:23:06.461Z,14.53
2018-02-06T06:24:10.477Z,14.57
2018-02-06T06:25:14.484Z,14.30
2018-02-06T06:26:18.463Z,14.90
2018-02-06T06:27:22.738Z,14.80
2018-02-06T06:28:27.586Z,13.70
2018-02-06T06:29:31.616Z,13.95
2018-02-06T06:30:35.704Z,14.70
2018-02-06T06:31:39.717Z,13.95
2018-02-06T06:32:43.792Z,14.80
2018-02-06T06:33:47.925Z,14.63
2018-02-06T06:34:52.053Z,14.95
2018-02-06T06:35:56.764Z,14.70
2018-02-06T06:37:02.774Z,13.52
2018-02-06T06:38:06.713Z,14.63
2018-02-06T06:39:10.751Z,13.27
2018-02-06T06:40:14.934Z,13.70
2018-02-06T06:41:19.717Z,14.23
2018-02-06T06:42:23.741Z,14.10
2018-02-06T06:43:27.774Z,14.15
2018-02-06T06:44:31.956Z,13.90
2018-02-06T06:45:36.757Z,14.80
2018-02-06T06:46:40.960Z,15.00
2018-02-06T06:47:44.934Z,15.02
2018-02-06T06:48:49.197Z,14.10
2018-02-06T06:49:53.325Z,14.55
2018-02-06T06:50:57.347Z,14.25
2018-02-06T06:52:02.406Z,13.98
2018-02-06T06:53:06.509Z,14.00
2018-02-06T06:54:10.465Z,13.90
2018-02-06T06:55:14.508Z,15.20
2018-02-06T06:56:18.614Z,14.10
2018-02-06T06:57:23.576Z,14.05
2018-02-06T06:58:27.668Z,15.02
2018-02-06T06:59:31.696Z,14.00
2018-02-06T07:00:35.765Z,14.15
2018-02-06T07:01:39.864Z,14.30
2018-02-06T07:02:43.795Z,14.40
2018-02-06T07:03:47.841Z,14.85
2018-02-06T07:04:52.696Z,15.30
2018-02-06T07:05:56.782Z,14.40
2018-02-06T07:07:00.847Z,14.52
2018-02-06T07:08:04.796Z,14.25
2018-02-06T07:09:09.919Z,14.65
2018-02-06T07:10:13.954Z,15.10
2018-02-06T07:11:17.997Z,15.05
2018-02-06T07:12:22.744Z,14.45
2018-02-06T07:13:26.846Z,14.30
2018-02-06T07:14:30.908Z,15.48
2018-02-06T07:15:35.157Z,14.93
2018-02-06T07:16:39.175Z,14.32
2018-02-06T07:17:43.114Z,15.05
2018-02-06T07:18:47.141Z,14.07
2018-02-06T07:19:51.096Z,14.63
2018-02-06T07:20:55.251Z,15.27
2018-02-06T07:21:59.754Z,14.63
2018-02-06T07:23:03.736Z,13.40
2018-02-06T07:24:08.812Z,15.32
2018-02-06T07:25:13.330Z,15.30
2018-02-06T07:26:17.498Z,15.30
2018-02-06T07:27:21.574Z,14.75
2018-02-06T07:28:26.309Z,15.10
2018-02-06T07:29:30.253Z,14.27
2018-02-06T07:30:34.393Z,15.30
2018-02-06T07:31:39.158Z,15.13
2018-02-06T07:32:43.327Z,15.63
2018-02-06T07:33:48.081Z,15.18
2018-02-06T07:34:52.082Z,15.70
2018-02-06T07:35:56.317Z,15.90
2018-02-06T07:37:00.345Z,15.48
2018-02-06T07:38:05.068Z,15.73
2018-02-06T07:39:09.796Z,16.75
2018-02-06T07:40:14.552Z,16.33
2018-02-06T07:41:18.625Z,16.10
2018-02-06T07:42:22.605Z,17.05
2018-02-06T07:43:26.674Z,15.95
2018-02-06T07:44:30.653Z,15.80
2018-02-06T07:45:34.862Z,16.60
2018-02-06T07:46:38.819Z,16.70
2018-02-06T07:47:42.857Z,16.17
2018-02-06T07:48:46.804Z,15.60
2018-02-06T07:49:51.528Z,16.80
2018-02-06T07:50:55.544Z,15.82
2018-02-06T07:51:59.682Z,16.43
2018-02-06T07:53:03.928Z,16.77
2018-02-06T07:54:09.040Z,15.93
2018-02-06T07:55:13.244Z,15.88
2018-02-06T07:56:18.124Z,15.55
2018-02-06T07:57:22.330Z,16.02
2018-02-06T07:58:26.468Z,16.70
2018-02-06T07:59:30.633Z,15.25
2018-02-06T08:00:35.545Z,15.85
2018-02-06T08:01:39.728Z,16.35
2018-02-06T08:02:44.167Z,15.90
2018-02-06T08:03:48.261Z,15.25
2018-02-06T08:04:52.452Z,15.30
2018-02-06T08:05:56.577Z,16.00
2018-02-06T08:07:00.828Z,15.68
2018-02-06T08:08:05.832Z,15.48
2018-02-06T08:09:10.793Z,15.60
2018-02-06T08:10:14.958Z,15.73
2018-02-06T08:11:19.174Z,15.10
2018-02-06T08:12:23.171Z,15.73
2018-02-06T08:13:27.428Z,15.32
2018-02-06T08:14:31.400Z,15.68
2018-02-06T08:15:36.714Z,15.40
2018-02-06T08:16:40.728Z,15.30
2018-02-06T08:17:45.542Z,15.77
2018-02-06T08:18:50.319Z,15.20
2018-02-06T08:19:54.276Z,16.90
2018-02-06T08:20:58.292Z,15.80
2018-02-06T08:22:02.504Z,16.98
2018-02-06T08:23:06.610Z,16.42
2018-02-06T08:24:10.788Z,15.73
2018-02-06T08:25:14.929Z,16.62
2018-02-06T08:26:18.949Z,16.73
2018-02-06T08:27:22.943Z,16.60
2018-02-06T08:28:26.907Z,15.98
2018-02-06T08:29:30.860Z,16.27
2018-02-06T08:30:35.872Z,16.62
2018-02-06T08:31:39.899Z,17.05
2018-02-06T08:32:45.077Z,18.67
2018-02-06T08:33:49.181Z,17.92
2018-02-06T08:34:53.139Z,18.60
2018-02-06T08:35:57.408Z,17.80
2018-02-06T08:37:01.475Z,18.05
2018-02-06T08:38:05.816Z,17.50
2018-02-06T08:39:10.671Z,17.20
2018-02-06T08:40:15.581Z,17.42
2018-02-06T08:41:20.470Z,17.45
2018-02-06T08:42:24.568Z,16.98
2018-02-06T08:43:28.791Z,18.77
2018-02-06T08:44:32.952Z,19.10
2018-02-06T08:45:37.544Z,18.30
2018-02-06T08:46:41.784Z,18.83
2018-02-06T08:47:45.941Z,18.30
2018-02-06T08:48:50.877Z,18.10
2018-02-06T08:49:55.110Z,17.77
2018-02-06T08:50:59.350Z,18.42
2018-02-06T08:52:03.523Z,19.48
2018-02-06T08:53:07.849Z,19.80
2018-02-06T08:54:12.084Z,23.60
2018-02-06T08:55:17.013Z,19.65
2018-02-06T08:56:22.229Z,19.30
2018-02-06T08:57:27.076Z,20.30
2018-02-06T08:58:31.450Z,18.70
2018-02-06T08:59:35.629Z,18.58
2018-02-06T09:00:39.757Z,18.02
2018-02-06T09:01:43.950Z,17.67
2018-02-06T09:02:48.865Z,17.98
2018-02-06T09:03:53.075Z,17.73
2018-02-06T09:04:57.259Z,18.52
2018-02-06T09:06:01.268Z,17.52
2018-02-06T09:07:05.206Z,18.75
2018-02-06T09:08:10.313Z,17.77
2018-02-06T09:09:14.324Z,18.15
2018-02-06T09:10:19.007Z,18.17
2018-02-06T09:11:23.048Z,18.75
2018-02-06T09:12:27.754Z,18.92
2018-02-06T09:13:32.483Z,17.80
2018-02-06T09:14:38.059Z,19.45
2018-02-06T09:15:42.164Z,18.80
2018-02-06T09:16:46.299Z,19.40
2018-02-06T09:17:50.469Z,18.77
2018-02-06T09:18:54.789Z,17.80
2018-02-06T09:19:58.953Z,18.27
2018-02-06T09:21:03.331Z,18.62
2018-02-06T09:22:07.457Z,18.25
2018-02-06T09:23:12.348Z,17.10
2018-02-06T09:24:16.483Z,18.02
2018-02-06T09:25:20.617Z,18.90
2018-02-06T09:26:24.756Z,18.35
2018-02-06T09:27:28.864Z,17.85
2018-02-06T09:28:33.021Z,17.67
2018-02-06T09:29:37.424Z,17.83
2018-02-06T09:30:41.527Z,17.85
2018-02-06T09:31:45.532Z,16.58
2018-02-06T09:32:49.558Z,17.12
2018-02-06T09:33:53.549Z,17.87
2018-02-06T09:34:58.258Z,20.00
2018-02-06T09:36:02.260Z,17.85
2018-02-06T09:37:06.269Z,18.35
2018-02-06T09:38:10.292Z,18.52
2018-02-06T09:39:14.243Z,18.12
2018-02-06T09:40:19.007Z,17.85
2018-02-06T09:41:23.174Z,17.12
2018-02-06T09:42:27.324Z,16.77
2018-02-06T09:43:32.276Z,17.40
2018-02-06T09:44:36.679Z,16.48
2018-02-06T09:45:41.188Z,17.98
2018-02-06T09:46:46.115Z,16.33
2018-02-06T09:47:50.257Z,16.58
2018-02-06T09:48:54.433Z,16.05
2018-02-06T09:49:58.504Z,17.77
2018-02-06T09:51:03.724Z,16.80
2018-02-06T09:52:07.690Z,17.00
2018-02-06T09:53:11.700Z,17.03
2018-02-06T09:54:15.793Z,16.08
2018-02-06T09:55:19.821Z,24.15
2018-02-06T09:56:23.766Z,22.23
2018-02-06T09:57:28.116Z,18.67
2018-02-06T09:58:32.079Z,17.17
2018-02-06T09:59:36.113Z,17.60
2018-02-06T10:00:40.125Z,16.45
2018-02-06T10:01:44.426Z,16.90
2018-02-06T10:02:48.406Z,16.20
2018-02-06T10:03:52.340Z,16.17
2018-02-06T10:04:57.054Z,16.40
2018-02-06T10:06:01.791Z,16.23
2018-02-06T10:07:06.635Z,16.70
2018-02-06T10:08:10.582Z,16.05
2018-02-06T10:09:14.613Z,16.23
2018-02-06T10:10:18.562Z,15.30
2018-02-06T10:11:22.638Z,16.20
2018-02-06T10:12:26.858Z,15.50
2018-02-06T10:13:31.058Z,16.77
2018-02-06T10:14:35.225Z,16.60
2018-02-06T10:15:39.420Z,16.80
2018-02-06T10:16:44.487Z,15.52
2018-02-06T10:17:48.713Z,16.08
2018-02-06T10:18:52.853Z,16.12
2018-02-06T10:19:58.095Z,15.43
2018-02-06T10:21:02.281Z,16.30
2018-02-06T10:22:07.689Z,15.85
2018-02-06T10:23:12.772Z,15.60
2018-02-06T10:24:16.943Z,15.50
2018-02-06T10:25:21.921Z,14.90
2018-02-06T10:26:26.313Z,16.67
2018-02-06T10:27:30.449Z,15.77
2018-02-06T10:28:34.660Z,15.02
2018-02-06T10:29:38.872Z,15.77
2018-02-06T10:30:43.072Z,15.60
2018-02-06T10:31:47.580Z,16.50
2018-02-06T10:32:51.763Z,16.15
2018-02-06T10:33:55.927Z,17.07
2018-02-06T10:34:59.896Z,17.20
2018-02-06T10:36:03.946Z,18.52
2018-02-06T10:37:07.981Z,19.05
2018-02-06T10:38:12.037Z,19.90
2018-02-06T10:39:16.033Z,20.12
2018-02-06T10:40:20.002Z,21.80
2018-02-06T10:41:24.116Z,19.30
2018-02-06T10:42:28.998Z,18.02
2018-02-06T10:43:33.280Z,17.80
2018-02-06T10:44:37.330Z,18.30
2018-02-06T10:45:41.388Z,19.77
2018-02-06T10:46:45.414Z,20.83
2018-02-06T10:47:49.378Z,18.00
2018-02-06T10:48:53.475Z,18.85
2018-02-06T10:49:57.715Z,19.00
2018-02-06T10:51:01.795Z,18.15
2018-02-06T10:52:06.129Z,18.95
2018-02-06T10:53:10.223Z,17.75
2018-02-06T10:54:14.383Z,18.10
2018-02-06T10:55:18.704Z,18.65
2018-02-06T10:56:22.868Z,17.87
2018-02-06T10:57:27.671Z,17.00
2018-02-06T10:58:31.893Z,18.15
2018-02-06T10:59:36.759Z,17.67
2018-02-06T11:00:40.762Z,18.33
2018-02-06T11:01:44.994Z,16.62
2018-02-06T11:02:49.112Z,16.50
2018-02-06T11:03:54.092Z,17.20
2018-02-06T11:05:08.373Z,17.50
2018-02-06T11:06:14.980Z,17.83
2018-02-06T11:07:19.787Z,17.35
2018-02-06T11:08:23.840Z,17.62
2018-02-06T11:09:27.768Z,17.58
2018-02-06T11:10:32.580Z,17.10
2018-02-06T11:11:37.359Z,17.85
2018-02-06T11:12:41.522Z,17.02
2018-02-06T11:13:46.582Z,17.52
2018-02-06T11:14:50.778Z,18.50
2018-02-06T11:15:54.976Z,18.15
2018-02-06T11:16:59.102Z,17.12
2018-02-06T11:18:03.111Z,17.42
2018-02-06T11:19:07.533Z,17.20
2018-02-06T11:20:11.561Z,17.35
2018-02-06T11:21:15.570Z,16.80
2018-02-06T11:22:19.567Z,16.80
2018-02-06T11:23:24.378Z,16.77
2018-02-06T11:24:29.433Z,17.80
2018-02-06T11:25:33.888Z,16.80
2018-02-06T11:26:37.890Z,17.00
2018-02-06T11:27:41.912Z,18.37
2018-02-06T11:28:46.748Z,17.10
2018-02-06T11:29:50.763Z,16.40
2018-02-06T11:30:54.970Z,17.02
2018-02-06T11:31:59.423Z,17.50
2018-02-06T11:33:03.616Z,17.30
2018-02-06T11:34:07.882Z,17.55
2018-02-06T11:35:12.816Z,17.30
2018-02-06T11:36:16.951Z,16.77
2018-02-06T11:37:21.111Z,17.48
2018-02-06T11:38:25.551Z,17.25
2018-02-06T11:39:29.800Z,17.00
2018-02-06T11:40:34.771Z,17.40
2018-02-06T11:41:38.921Z,17.70
2018-02-06T11:42:43.883Z,17.08
2018-02-06T11:43:48.106Z,17.65
2018-02-06T11:44:52.451Z,18.62
2018-02-06T11:45:57.217Z,19.40
2018-02-06T11:47:01.168Z,20.58
2018-02-06T11:48:05.192Z,18.83
2018-02-06T11:49:09.243Z,18.40
2018-02-06T11:50:13.798Z,18.85
2018-02-06T11:51:18.534Z,21.07
2018-02-06T11:52:22.688Z,17.80
2018-02-06T11:53:27.100Z,18.15
2018-02-06T11:54:31.189Z,17.60
2018-02-06T11:55:35.225Z,17.80
2018-02-06T11:56:40.288Z,17.70
2018-02-06T11:57:44.339Z,17.33
2018-02-06T11:58:48.327Z,17.02
2018-02-06T11:59:52.700Z,17.90
2018-02-06T12:00:56.982Z,15.80
2018-02-06T12:02:01.543Z,17.55
2018-02-06T12:03:05.812Z,19.00
2018-02-06T12:04:09.999Z,18.50
2018-02-06T12:05:14.331Z,18.08
2018-02-06T12:06:18.528Z,17.70
2018-02-06T12:07:22.728Z,17.67
2018-02-06T12:08:27.235Z,17.35
2018-02-06T12:09:31.438Z,17.67
2018-02-06T12:10:35.705Z,18.30
2018-02-06T12:11:39.722Z,17.00
2018-02-06T12:12:44.515Z,18.60
2018-02-06T12:13:49.377Z,18.35
2018-02-06T12:14:53.399Z,18.20
2018-02-06T12:15:57.603Z,17.92
2018-02-06T12:17:01.680Z,18.35
2018-02-06T12:18:06.483Z,19.27
2018-02-06T12:19:11.324Z,17.83
2018-02-06T12:20:16.356Z,17.92
2018-02-06T12:21:20.323Z,17.98
2018-02-06T12:22:24.400Z,18.87
2018-02-06T12:23:29.259Z,19.48
2018-02-06T12:24:33.996Z,19.95
2018-02-06T12:25:38.797Z,18.08
2018-02-06T12:26:42.868Z,17.60
2018-02-06T12:27:47.191Z,17.37
2018-02-06T12:28:51.307Z,17.55
2018-02-06T12:29:56.318Z,17.35
2018-02-06T12:31:01.542Z,16.55
2018-02-06T12:32:05.799Z,17.00
2018-02-06T12:33:10.010Z,16.40
2018-02-06T12:34:14.212Z,16.30
2018-02-06T12:35:18.459Z,18.20
2018-02-06T12:36:23.627Z,17.42
2018-02-06T12:37:27.843Z,16.67
2018-02-06T12:38:32.004Z,17.92
2018-02-06T12:39:36.945Z,16.35
2018-02-06T12:40:41.759Z,17.33
2018-02-06T12:41:45.879Z,17.10
2018-02-06T12:42:50.146Z,16.17
2018-02-06T12:43:55.094Z,16.65
2018-02-06T12:45:00.018Z,16.83
2018-02-06T12:46:04.203Z,16.95
2018-02-06T12:47:09.102Z,17.52
2018-02-06T12:48:13.392Z,20.90
2018-02-06T12:49:17.820Z,21.17
2018-02-06T12:50:21.966Z,18.08
2018-02-06T12:51:26.167Z,17.87
2018-02-06T12:52:30.232Z,17.90
2018-02-06T12:53:34.349Z,17.60
2018-02-06T12:54:38.784Z,17.17
2018-02-06T12:55:43.332Z,17.80
2018-02-06T12:56:47.522Z,17.27
2018-02-06T12:57:53.086Z,17.60
2018-02-06T12:58:58.526Z,17.25
2018-02-06T13:00:02.909Z,17.52
2018-02-06T13:01:07.264Z,18.80
2018-02-06T13:02:11.335Z,16.87
2018-02-06T13:03:15.493Z,16.87
2018-02-06T13:04:19.582Z,16.90
2018-02-06T13:05:24.440Z,16.58
2018-02-06T13:06:29.198Z,17.20
2018-02-06T13:07:33.336Z,17.58
2018-02-06T13:08:37.480Z,17.70
2018-02-06T13:09:41.773Z,16.80
2018-02-06T13:10:45.941Z,16.67
2018-02-06T13:11:51.063Z,16.40
2018-02-06T13:12:56.082Z,16.75
2018-02-06T13:14:01.116Z,16.50
2018-02-06T13:15:07.026Z,18.23
2018-02-06T13:16:12.305Z,18.45
2018-02-06T13:17:16.514Z,17.75
2018-02-06T13:18:20.751Z,17.45
2018-02-06T13:19:24.897Z,18.70
2018-02-06T13:20:30.090Z,18.40
2018-02-06T13:21:34.379Z,17.92
2018-02-06T13:22:38.444Z,17.60
2018-02-06T13:23:43.428Z,17.60
2018-02-06T13:24:47.653Z,16.12
2018-02-06T13:25:52.643Z,17.12
2018-02-06T13:26:57.554Z,17.00
2018-02-06T13:28:01.749Z,16.87
2018-02-06T13:29:06.183Z,16.98
2018-02-06T13:30:10.368Z,18.00
2018-02-06T13:31:14.871Z,17.98
2018-02-06T13:32:19.144Z,17.30
2018-02-06T13:33:24.066Z,16.73
2018-02-06T13:34:28.954Z,16.60
2018-02-06T13:35:33.413Z,17.17
2018-02-06T13:36:37.630Z,17.33
2018-02-06T13:37:41.878Z,17.25
2018-02-06T13:38:46.160Z,17.50
2018-02-06T13:39:53.503Z,17.52
2018-02-06T13:40:57.660Z,18.33
2018-02-06T13:42:02.125Z,17.00
2018-02-06T13:43:07.149Z,17.45
2018-02-06T13:44:11.368Z,17.40
2018-02-06T13:45:15.790Z,18.40
2018-02-06T13:46:20.925Z,17.35
2018-02-06T13:47:25.194Z,17.15
2018-02-06T13:48:30.063Z,17.65
2018-02-06T13:49:34.157Z,18.90
2018-02-06T13:50:38.276Z,16.77
2018-02-06T13:51:42.379Z,18.73
2018-02-06T13:52:46.689Z,18.85
2018-02-06T13:53:50.723Z,17.98
2018-02-06T13:54:54.884Z,18.80
2018-02-06T13:55:59.040Z,19.50
2018-02-06T13:57:03.351Z,30.55
2018-02-06T13:58:07.752Z,24.42
2018-02-06T13:59:11.879Z,20.67
2018-02-06T14:00:16.076Z,17.87
2018-02-06T14:01:20.343Z,19.50
2018-02-06T14:02:25.220Z,18.45
2018-02-06T14:03:29.645Z,19.23
2018-02-06T14:04:33.835Z,18.67
2018-02-06T14:05:37.958Z,19.20
2018-02-06T14:06:42.091Z,19.25
2018-02-06T14:07:47.077Z,18.35
2018-02-06T14:08:51.349Z,18.42
2018-02-06T14:09:55.837Z,18.63
2018-02-06T14:11:00.849Z,19.10
2018-02-06T14:12:05.591Z,19.02
2018-02-06T14:13:09.615Z,18.83
2018-02-06T14:14:13.750Z,18.77
2018-02-06T14:15:17.841Z,19.05
2018-02-06T14:16:22.114Z,20.33
2018-02-06T14:17:26.103Z,20.77
2018-02-06T14:18:30.131Z,20.70
2018-02-06T14:19:34.181Z,19.60
2018-02-06T14:20:39.045Z,19.90
2018-02-06T14:21:43.320Z,20.10
2018-02-06T14:22:48.110Z,20.70
2018-02-06T14:23:52.162Z,19.60
2018-02-06T14:24:56.282Z,19.33
2018-02-06T14:26:00.551Z,20.10
2018-02-06T14:27:04.722Z,20.60
2018-02-06T14:28:09.240Z,20.17
2018-02-06T14:29:13.452Z,19.20
2018-02-06T14:30:18.827Z,18.70
2018-02-06T14:31:23.121Z,20.17
2018-02-06T14:32:27.356Z,19.45
2018-02-06T14:33:31.903Z,19.20
2018-02-06T14:34:36.115Z,19.60
2018-02-06T14:35:41.073Z,18.95
2018-02-06T14:36:45.146Z,20.20
2018-02-06T14:37:50.129Z,19.25
2018-02-06T14:38:54.537Z,19.40
2018-02-06T14:39:58.965Z,20.10
2018-02-06T14:41:03.864Z,20.50
2018-02-06T14:42:08.078Z,18.40
2018-02-06T14:43:12.305Z,19.90
2018-02-06T14:44:16.582Z,20.02
2018-02-06T14:45:20.848Z,21.55
2018-02-06T14:46:25.003Z,20.35
2018-02-06T14:47:29.199Z,20.53
2018-02-06T14:48:33.447Z,21.33
2018-02-06T14:49:38.633Z,20.83
2018-02-06T14:50:42.837Z,20.08
2018-02-06T14:51:47.248Z,20.60
2018-02-06T14:52:51.465Z,20.48
2018-02-06T14:53:55.585Z,20.50
2018-02-06T14:54:59.792Z,21.03
2018-02-06T14:56:04.487Z,19.95
2018-02-06T14:57:08.679Z,21.27
2018-02-06T14:58:13.116Z,21.33
2018-02-06T14:59:17.269Z,23.02
2018-02-06T15:00:21.582Z,22.02
2018-02-06T15:01:25.923Z,22.55
2018-02-06T15:02:30.096Z,21.87
2018-02-06T15:03:34.288Z,21.98
2018-02-06T15:04:38.492Z,21.30
2018-02-06T15:05:42.599Z,21.87
2018-02-06T15:06:46.665Z,20.80
2018-02-06T15:07:51.483Z,22.50
2018-02-06T15:08:56.332Z,20.60
2018-02-06T15:10:00.796Z,21.42
2018-02-06T15:11:05.468Z,21.40
2018-02-06T15:12:09.579Z,23.12
2018-02-06T15:13:13.704Z,21.90
2018-02-06T15:14:17.965Z,21.40
2018-02-06T15:15:22.098Z,22.30
2018-02-06T15:16:26.717Z,24.17
2018-02-06T15:17:30.878Z,23.73
2018-02-06T15:18:35.005Z,24.65
2018-02-06T15:19:39.165Z,23.05
2018-02-06T15:20:44.436Z,23.02
2018-02-06T15:21:48.644Z,23.10
2018-02-06T15:22:53.005Z,22.73
2018-02-06T15:23:57.144Z,23.25
2018-02-06T15:25:01.416Z,22.42
2018-02-06T15:26:06.462Z,21.95
2018-02-06T15:27:14.100Z,23.52
2018-02-06T15:28:18.213Z,23.50
2018-02-06T15:29:22.375Z,24.37
2018-02-06T15:30:26.692Z,22.35
2018-02-06T15:31:30.904Z,23.38
2018-02-06T15:32:35.241Z,22.98
2018-02-06T15:33:39.384Z,23.65
2018-02-06T15:34:43.568Z,24.25
2018-02-06T15:35:48.603Z,23.35
2018-02-06T15:36:52.701Z,24.48
2018-02-06T15:37:57.814Z,22.98
2018-02-06T15:39:02.734Z,25.20
2018-02-06T15:40:07.011Z,23.02
2018-02-06T15:41:11.296Z,23.67
2018-02-06T15:42:15.832Z,23.90
2018-02-06T15:43:20.629Z,22.85
2018-02-06T15:44:24.723Z,22.67
2018-02-06T15:45:28.803Z,24.65
2018-02-06T15:46:32.834Z,24.37